Time;durP1;ratioP1;P1;durP2;ratioP2;P2;SDS_P1;SDS_P2;PMS_P1;PMS_P2;Temp;Humidity;BMP_temperature;BMP_pressure;BME280_temperature;BME280_humidity;BME280_pressure;Samples;Min_cycle;Max_cycle;Signal;HPM_P1;HPM_P2
2023/08/13 00:00:48;;;;;;;7.30;3.95;;;;;;;16.89;100.00;97884.13;5045970;28;20025;-72
2023/08/13 00:03:13;;;;;;;9.23;4.50;;;;;;;16.88;100.00;97878.84;5046474;28;20399;-72
2023/08/13 00:05:39;;;;;;;6.80;4.60;;;;;;;16.85;100.00;97892.63;5046406;28;20086;-72
2023/08/13 00:08:05;;;;;;;9.93;4.18;;;;;;;16.83;100.00;97883.78;5047697;28;20025;-72
2023/08/13 00:10:30;;;;;;;9.73;4.60;;;;;;;16.88;100.00;97884.25;5047082;28;20033;-72
2023/08/13 00:12:56;;;;;;;6.18;4.70;;;;;;;16.92;100.00;97883.03;5045950;28;20063;-72
2023/08/13 00:15:21;;;;;;;10.57;5.10;;;;;;;16.84;100.00;97885.47;5047314;28;20108;-72
2023/08/13 00:17:47;;;;;;;11.70;4.80;;;;;;;16.85;100.00;97889.91;5046044;28;20507;-71
2023/08/13 00:20:13;;;;;;;7.68;4.85;;;;;;;16.84;100.00;97885.47;5045886;28;20082;-72
2023/08/13 00:22:39;;;;;;;7.72;4.30;;;;;;;16.86;100.00;97888.94;5046014;28;20025;-72
2023/08/13 00:25:05;;;;;;;6.00;4.90;;;;;;;16.88;100.00;97884.25;5045753;28;20039;-72
2023/08/13 00:27:30;;;;;;;7.72;5.30;;;;;;;16.91;100.00;97881.31;5045820;28;20047;-72
2023/08/13 00:29:56;;;;;;;12.77;5.60;;;;;;;16.94;100.00;97889.16;5045730;28;20046;-72
2023/08/13 00:32:21;;;;;;;10.20;6.30;;;;;;;16.98;100.00;97885.22;5047334;28;20032;-71
2023/08/13 00:34:47;;;;;;;9.73;6.57;;;;;;;17.06;100.00;97889.00;5045880;28;20029;-71
2023/08/13 00:37:12;;;;;;;8.15;5.68;;;;;;;17.08;100.00;97888.88;5045798;28;20057;-71
2023/08/13 00:39:38;;;;;;;9.05;5.53;;;;;;;17.06;100.00;97886.31;5046712;28;20025;-72
2023/08/13 00:42:04;;;;;;;7.75;5.25;;;;;;;17.10;100.00;97884.22;5029358;28;20017;-72
2023/08/13 00:44:29;;;;;;;9.30;6.15;;;;;;;17.11;100.00;97891.31;5045623;28;20157;-72
2023/08/13 00:46:55;;;;;;;9.60;6.95;;;;;;;17.16;100.00;97886.41;5032130;28;20074;-72
2023/08/13 00:49:21;;;;;;;15.40;8.43;;;;;;;17.19;100.00;97880.75;5027103;28;20022;-72
2023/08/13 00:51:46;;;;;;;11.98;8.05;;;;;;;17.18;100.00;97890.69;5025720;28;20033;-72
2023/08/13 00:54:12;;;;;;;13.25;8.27;;;;;;;17.15;100.00;97887.38;5025661;28;20022;-72
2023/08/13 00:56:38;;;;;;;13.25;7.50;;;;;;;17.16;100.00;97886.41;5009079;28;20121;-73
2023/08/13 00:59:04;;;;;;;10.50;7.57;;;;;;;17.17;100.00;97888.09;5029813;28;20021;-72
2023/08/13 01:01:30;;;;;;;12.80;7.90;;;;;;;17.21;100.00;97876.06;5028973;28;20444;-72
2023/08/13 01:03:55;;;;;;;10.18;6.88;;;;;;;17.21;100.00;97881.47;5029208;28;20061;-72
2023/08/13 01:06:33;;;;;;;10.60;7.75;;;;;;;17.15;100.00;97885.56;5030211;28;20037;-71
2023/08/13 01:09:05;;;;;;;9.48;6.43;;;;;;;17.10;100.00;97882.34;5028867;28;20060;-71
2023/08/13 01:11:35;;;;;;;12.38;7.10;;;;;;;17.04;100.00;97884.72;5028842;28;20025;-71
2023/08/13 01:14:36;;;;;;;9.02;5.72;;;;;;;16.97;100.00;97875.41;5028831;28;20485;-71
2023/08/13 01:17:03;;;;;;;10.65;6.72;;;;;;;16.96;100.00;97884.47;5066467;28;20473;-71
2023/08/13 01:19:29;;;;;;;10.27;6.40;;;;;;;16.94;100.00;97881.91;5028765;28;20029;-72
2023/08/13 01:21:54;;;;;;;15.25;7.13;;;;;;;16.89;100.00;97877.88;5029014;28;20032;-71
2023/08/13 01:24:19;;;;;;;9.73;7.18;;;;;;;16.85;100.00;97879.09;5028742;28;20122;-72
2023/08/13 01:27:06;;;;;;;16.90;7.80;;;;;;;16.76;100.00;97889.66;5011814;28;20064;-72
2023/08/13 01:29:40;;;;;;;9.18;7.18;;;;;;;16.64;100.00;97879.84;5029448;28;20532;-72
2023/08/13 01:32:09;;;;;;;8.88;6.53;;;;;;;16.64;100.00;97896.06;5042251;28;20029;-71
2023/08/13 01:34:36;;;;;;;10.77;7.13;;;;;;;16.53;100.00;97896.03;5031555;28;20029;-72
2023/08/13 01:37:02;;;;;;;11.40;7.45;;;;;;;16.51;100.00;97889.91;5048273;28;20057;-72
2023/08/13 01:39:28;;;;;;;12.68;8.35;;;;;;;16.33;100.00;97890.53;5048624;28;20096;-72
2023/08/13 01:41:54;;;;;;;15.77;8.48;;;;;;;16.27;100.00;97898.13;5048084;28;20390;-72
2023/08/13 01:44:20;;;;;;;11.20;8.10;;;;;;;16.26;100.00;97885.63;5048373;28;20025;-72
2023/08/13 01:46:47;;;;;;;11.98;8.02;;;;;;;16.14;100.00;97888.44;5048115;28;20032;-72
2023/08/13 01:49:12;;;;;;;12.10;7.55;;;;;;;16.16;100.00;97894.56;5031582;28;20032;-71
2023/08/13 01:51:38;;;;;;;12.07;8.13;;;;;;;16.12;100.00;97893.94;5049750;28;20468;-71
2023/08/13 01:54:03;;;;;;;14.10;8.20;;;;;;;16.02;100.00;97892.09;5047862;28;20094;-71
2023/08/13 01:56:29;;;;;;;12.00;8.80;;;;;;;16.01;100.00;97895.75;5048245;28;20487;-71
2023/08/13 01:58:54;;;;;;;13.05;8.52;;;;;;;15.92;100.00;97894.66;5047749;28;20555;-71
2023/08/13 02:01:20;;;;;;;10.95;6.72;;;;;;;15.93;100.00;97896.38;5048216;28;20028;-72
2023/08/13 02:03:45;;;;;;;10.90;6.97;;;;;;;15.92;100.00;97891.94;5048047;28;20384;-71
2023/08/13 02:06:11;;;;;;;13.50;7.63;;;;;;;15.80;100.00;97889.34;5047947;28;20059;-71
2023/08/13 02:08:36;;;;;;;10.43;7.78;;;;;;;15.80;100.00;97898.28;5048125;28;20469;-72
2023/08/13 02:11:02;;;;;;;11.93;7.93;;;;;;;15.70;100.00;97891.88;5038734;28;20033;-71
2023/08/13 02:13:27;;;;;;;10.57;7.70;;;;;;;15.69;100.00;97891.03;5027796;28;20405;-71
2023/08/13 02:15:53;;;;;;;11.35;7.10;;;;;;;15.59;100.00;97887.34;5011346;28;20048;-71
2023/08/13 02:18:18;;;;;;;16.17;7.32;;;;;;;15.63;100.00;97894.19;5029103;28;20059;-72
2023/08/13 02:20:44;;;;;;;14.73;6.63;;;;;;;15.62;100.00;97894.31;5029034;28;20026;-70
2023/08/13 02:23:09;;;;;;;8.70;6.50;;;;;;;15.55;100.00;97882.28;5028835;28;20601;-71
2023/08/13 02:25:36;;;;;;;11.02;6.35;;;;;;;15.63;100.00;97902.28;5029050;28;20063;-71
2023/08/13 02:28:01;;;;;;;6.40;5.20;;;;;;;15.61;100.00;97896.16;5010949;28;20099;-71
2023/08/13 02:30:27;;;;;;;12.98;5.45;;;;;;;15.66;100.00;97902.03;5011105;28;20078;-71
2023/08/13 02:32:52;;;;;;;10.25;5.60;;;;;;;15.59;100.00;97900.81;5027538;28;20049;-71
2023/08/13 02:35:18;;;;;;;8.63;5.50;;;;;;;15.60;100.00;97902.50;5027649;28;20036;-71
2023/08/13 02:37:43;;;;;;;9.48;4.90;;;;;;;15.62;100.00;97899.72;5027631;28;20112;-71
2023/08/13 02:40:09;;;;;;;7.82;4.85;;;;;;;15.61;100.00;97895.28;5011015;28;20062;-71
2023/08/13 02:42:35;;;;;;;8.52;5.03;;;;;;;15.59;100.00;97902.66;5028643;28;20033;-71
2023/08/13 02:45:00;;;;;;;6.78;5.03;;;;;;;15.42;100.00;97898.50;5027688;28;20029;-72
2023/08/13 02:47:26;;;;;;;8.35;5.03;;;;;;;15.41;100.00;97910.25;5028655;28;20480;-76
2023/08/13 02:49:51;;;;;;;8.13;5.30;;;;;;;15.38;100.00;97902.38;5027400;28;20021;-75
2023/08/13 02:52:18;;;;;;;7.97;5.53;;;;;;;15.43;100.00;97904.75;5027180;28;20377;-75
2023/08/13 02:54:43;;;;;;;11.65;5.65;;;;;;;15.51;100.00;97908.59;5027489;28;20054;-75
2023/08/13 02:57:09;;;;;;;12.65;4.97;;;;;;;15.40;100.00;97904.97;5028639;28;20432;-75
2023/08/13 02:59:34;;;;;;;11.32;5.75;;;;;;;15.37;100.00;97905.22;5027596;28;20116;-75
2023/08/13 03:02:00;;;;;;;9.65;5.20;;;;;;;15.35;100.00;97912.56;5028597;28;20033;-75
2023/08/13 03:04:25;;;;;;;10.73;5.63;;;;;;;15.38;100.00;97923.13;5028489;28;20034;-75
2023/08/13 03:06:51;;;;;;;8.63;5.65;;;;;;;15.42;100.00;97911.97;5027266;28;20033;-74
2023/08/13 03:09:21;;;;;;;7.80;5.78;;;;;;;15.46;100.00;97915.31;5028237;28;20059;-75
2023/08/13 03:11:47;;;;;;;11.02;5.20;;;;;;;15.36;100.00;97909.75;5027136;28;20132;-75
2023/08/13 03:14:12;;;;;;;6.75;5.05;;;;;;;15.39;100.00;97922.97;5026791;28;20032;-76
2023/08/13 03:16:38;;;;;;;9.93;6.05;;;;;;;15.44;100.00;97930.75;5027320;28;20025;-75
2023/08/13 03:19:03;;;;;;;6.65;5.55;;;;;;;15.43;100.00;97923.63;5028389;28;20204;-75
2023/08/13 03:21:29;;;;;;;9.85;5.63;;;;;;;15.44;100.00;97918.09;5026894;28;20041;-75
2023/08/13 03:23:54;;;;;;;7.93;5.10;;;;;;;15.37;100.00;97922.25;5027018;28;20066;-74
2023/08/13 03:26:20;;;;;;;11.20;5.60;;;;;;;15.33;100.00;97925.28;5026748;28;20389;-75
2023/08/13 03:28:45;;;;;;;19.08;6.03;;;;;;;15.25;100.00;97923.19;5028042;28;20041;-74
2023/08/13 03:31:11;;;;;;;16.20;6.50;;;;;;;15.23;100.00;97924.28;5010277;28;20041;-74
2023/08/13 03:33:36;;;;;;;9.85;5.35;;;;;;;15.32;100.00;97923.59;5027016;28;20112;-75
2023/08/13 03:36:02;;;;;;;9.80;6.13;;;;;;;15.36;100.00;97920.53;5028178;28;20033;-74
2023/08/13 03:38:28;;;;;;;13.30;6.13;;;;;;;15.38;100.00;97923.13;5026801;28;20029;-75
2023/08/13 03:40:55;;;;;;;20.38;6.07;;;;;;;15.34;100.00;97919.78;5026972;28;20030;-74
2023/08/13 03:43:20;;;;;;;12.73;6.10;;;;;;;15.37;100.00;97916.88;5026531;28;20033;-75
2023/08/13 03:45:45;;;;;;;13.23;6.07;;;;;;;15.33;100.00;97920.75;5026609;28;20029;-74
2023/08/13 03:48:11;;;;;;;9.82;5.65;;;;;;;15.41;100.00;97923.72;5026521;28;20418;-75
2023/08/13 03:50:41;;;;;;;22.40;7.63;;;;;;;15.48;100.00;97918.75;5026866;28;20081;-75
2023/08/13 03:53:07;;;;;;;12.27;6.60;;;;;;;15.50;100.00;97924.91;5026554;28;20033;-73
2023/08/13 03:55:33;;;;;;;16.92;6.15;;;;;;;15.47;100.00;97923.28;5026218;28;20556;-75
2023/08/13 03:57:58;;;;;;;13.93;6.03;;;;;;;15.44;100.00;97920.78;5027632;28;20112;-75
2023/08/13 04:00:24;;;;;;;11.23;7.10;;;;;;;15.51;100.00;97923.91;5029807;28;20079;-75
2023/08/13 04:02:49;;;;;;;14.52;7.60;;;;;;;15.48;100.00;97919.63;5046313;28;20021;-75
2023/08/13 04:05:15;;;;;;;16.48;7.57;;;;;;;15.30;100.00;97928.19;5046525;28;20488;-75
2023/08/13 04:07:41;;;;;;;14.18;7.55;;;;;;;15.17;100.00;97925.56;5034990;28;20036;-75
2023/08/13 04:10:07;;;;;;;19.10;9.13;;;;;;;15.23;100.00;97941.28;5026430;28;20033;-75
2023/08/13 04:12:32;;;;;;;17.50;8.48;;;;;;;15.37;100.00;97942.94;5042581;28;20408;-75
2023/08/13 04:14:58;;;;;;;11.95;7.53;;;;;;;15.84;100.00;97939.38;5009892;28;20074;-76
2023/08/13 04:17:23;;;;;;;21.02;7.22;;;;;;;16.39;100.00;97939.50;5026203;28;20082;-75
2023/08/13 04:19:49;;;;;;;10.80;6.50;;;;;;;17.11;100.00;97926.47;5027506;28;20033;-75
2023/08/13 04:22:15;;;;;;;12.70;6.18;;;;;;;17.34;100.00;97931.72;5009625;28;20033;-75
2023/08/13 04:24:40;;;;;;;32.45;7.35;;;;;;;17.08;100.00;97926.72;5026363;28;20045;-75
2023/08/13 04:27:06;;;;;;;30.25;7.05;;;;;;;16.89;100.00;97921.13;5027165;28;20038;-75
2023/08/13 04:29:31;;;;;;;23.92;6.80;;;;;;;16.90;100.00;97942.59;5025809;28;20527;-75
2023/08/13 04:31:57;;;;;;;9.93;6.35;;;;;;;16.72;100.00;97944.94;5025890;28;20065;-76
2023/08/13 04:34:22;;;;;;;9.32;5.85;;;;;;;16.57;100.00;97945.31;5028853;28;20029;-75
2023/08/13 04:36:48;;;;;;;10.68;6.47;;;;;;;16.35;100.00;97943.41;5029688;28;20120;-75
2023/08/13 04:39:13;;;;;;;11.93;6.72;;;;;;;16.32;100.00;97950.91;5029380;28;20040;-75
2023/08/13 04:41:40;;;;;;;20.48;6.38;;;;;;;16.42;100.00;97951.91;5029316;28;20043;-75
2023/08/13 04:44:06;;;;;;;14.65;6.38;;;;;;;16.37;100.00;97949.56;5012809;28;20030;-75
2023/08/13 04:46:32;;;;;;;14.18;6.47;;;;;;;16.46;100.00;97953.34;5029289;28;20105;-75
2023/08/13 04:48:58;;;;;;;14.50;6.38;;;;;;;16.50;100.00;97953.00;5029443;28;20152;-75
2023/08/13 04:51:24;;;;;;;9.95;6.47;;;;;;;16.43;100.00;97954.47;5029176;28;20431;-75
2023/08/13 04:53:50;;;;;;;14.23;7.03;;;;;;;16.52;100.00;97961.00;5029310;28;20025;-75
2023/08/13 04:56:15;;;;;;;9.65;6.03;;;;;;;16.54;100.00;97965.34;5030264;28;20036;-73
2023/08/13 04:58:41;;;;;;;11.85;7.20;;;;;;;16.63;100.00;97953.78;5048695;28;20040;-75
2023/08/13 05:01:07;;;;;;;10.52;6.60;;;;;;;16.72;100.00;97958.47;5049047;28;20036;-76
2023/08/13 05:03:32;;;;;;;12.93;6.85;;;;;;;16.79;100.00;97969.63;5031756;28;20017;-75
2023/08/13 05:05:58;;;;;;;11.77;6.80;;;;;;;16.78;100.00;97954.41;5010141;28;20030;-75
2023/08/13 05:08:23;;;;;;;18.38;8.73;;;;;;;16.85;100.00;97962.88;5027525;28;20105;-74
2023/08/13 05:10:49;;;;;;;21.15;9.35;;;;;;;17.04;100.00;97971.22;5027612;28;20033;-75
2023/08/13 05:13:15;;;;;;;29.15;9.32;;;;;;;17.19;100.00;97964.56;5026078;28;20129;-74
2023/08/13 05:15:41;;;;;;;21.90;9.80;;;;;;;17.24;100.00;97965.91;5026275;28;20021;-75
2023/08/13 05:18:06;;;;;;;47.80;14.68;;;;;;;17.41;100.00;97964.47;5042546;28;20026;-75
2023/08/13 05:20:32;;;;;;;21.33;9.70;;;;;;;17.60;100.00;97967.41;5027676;28;20452;-75
2023/08/13 05:22:58;;;;;;;26.30;9.38;;;;;;;17.74;100.00;97967.16;5038865;28;20096;-81
2023/08/13 05:25:24;;;;;;;15.88;8.48;;;;;;;17.94;100.00;97965.44;5039317;28;20021;-80
2023/08/13 05:27:50;;;;;;;22.85;8.90;;;;;;;18.03;100.00;97969.19;5026794;28;20025;-81
2023/08/13 05:30:15;;;;;;;14.05;7.72;;;;;;;18.13;100.00;97978.28;5039369;28;20041;-76
2023/08/13 05:32:41;;;;;;;33.72;9.65;;;;;;;18.35;100.00;97967.31;5057011;27;20029;-81
2023/08/13 05:35:07;;;;;;;15.60;7.43;;;;;;;19.14;100.00;97971.13;5033345;28;20511;-76
2023/08/13 05:37:33;;;;;;;18.70;7.88;;;;;;;20.65;100.00;97953.38;5045535;28;20036;-75
2023/08/13 05:39:58;;;;;;;12.98;6.93;;;;;;;22.25;100.00;97952.75;5045804;28;20024;-82
2023/08/13 05:42:27;;;;;;;9.60;6.68;;;;;;;23.54;100.00;97938.00;5019710;28;20029;-80
2023/08/13 05:44:52;;;;;;;7.40;5.90;;;;;;;24.39;100.00;97938.69;5011271;28;20082;-80
2023/08/13 05:47:18;;;;;;;9.15;6.25;;;;;;;23.78;100.00;97945.41;5015803;28;20029;-80
2023/08/13 05:49:43;;;;;;;10.00;5.70;;;;;;;24.71;100.00;97935.88;5049983;28;20025;-85
2023/08/13 05:52:09;;;;;;;29.35;6.30;;;;;;;25.74;98.28;97937.63;5017259;28;20556;-82
2023/08/13 05:54:34;;;;;;;13.77;5.93;;;;;;;25.66;96.03;97934.91;5012364;28;20068;-79
2023/08/13 05:57:00;;;;;;;12.93;5.07;;;;;;;26.93;88.28;97930.50;5027380;28;20075;-75
2023/08/13 05:59:25;;;;;;;9.65;6.10;;;;;;;26.88;83.50;97930.22;5025484;28;20532;-78
2023/08/13 06:01:51;;;;;;;10.43;6.05;;;;;;;24.99;95.49;97939.97;5039661;28;20029;-77
2023/08/13 06:04:16;;;;;;;10.02;6.50;;;;;;;25.58;94.93;97941.28;5027124;28;20503;-81
2023/08/13 06:06:42;;;;;;;9.75;5.72;;;;;;;26.20;91.66;97942.13;5009368;28;20029;-80
2023/08/13 06:09:08;;;;;;;10.63;5.70;;;;;;;25.92;90.35;97931.84;5027052;28;20510;-75
2023/08/13 06:11:34;;;;;;;19.58;5.55;;;;;;;26.75;87.18;97936.31;5025525;28;20040;-79
2023/08/13 06:13:59;;;;;;;19.08;5.57;;;;;;;27.88;78.53;97928.59;5038780;28;20029;-78
2023/08/13 06:16:25;;;;;;;11.02;5.57;;;;;;;27.54;75.46;97925.66;5045808;28;20033;-78
2023/08/13 06:18:50;;;;;;;22.42;6.65;;;;;;;27.71;74.88;97927.16;5045569;28;20399;-79
2023/08/13 06:21:16;;;;;;;32.15;6.65;;;;;;;27.80;77.16;97928.72;5026717;28;20081;-78
2023/08/13 06:23:41;;;;;;;33.30;13.82;;;;;;;28.45;72.22;97926.69;5025211;28;20120;-78
2023/08/13 06:26:07;;;;;;;34.67;5.72;;;;;;;28.63;70.75;97925.34;5025152;28;20089;-78
2023/08/13 06:28:33;;;;;;;24.08;7.47;;;;;;;28.82;67.96;97916.44;5027061;28;20081;-77
2023/08/13 06:30:59;;;;;;;13.48;5.40;;;;;;;28.91;66.17;97923.50;5029442;28;20040;-77
2023/08/13 06:33:24;;;;;;;13.05;5.93;;;;;;;29.75;61.74;97915.91;5044901;28;20029;-80
2023/08/13 06:35:50;;;;;;;16.27;4.95;;;;;;;30.61;57.79;97907.63;5044989;28;20153;-79
2023/08/13 06:38:15;;;;;;;13.23;4.72;;;;;;;31.30;53.63;97906.28;5046017;28;20029;-78
2023/08/13 06:40:42;;;;;;;14.98;5.45;;;;;;;30.67;54.52;97911.44;5045894;28;20519;-77
2023/08/13 06:43:07;;;;;;;24.92;15.55;;;;;;;31.43;53.19;97901.56;5039795;28;20030;-80
2023/08/13 06:45:33;;;;;;;16.45;4.97;;;;;;;31.73;51.86;97901.03;5029250;28;20044;-76
2023/08/13 06:47:58;;;;;;;11.15;5.82;;;;;;;30.97;52.59;97906.34;5042602;28;20040;-78
2023/08/13 06:50:25;;;;;;;11.05;4.63;;;;;;;32.08;49.85;97900.47;5045147;28;20407;-78
2023/08/13 06:52:51;;;;;;;7.88;4.85;;;;;;;31.16;50.54;97902.72;5028065;28;20033;-78
2023/08/13 06:55:16;;;;;;;5.47;4.20;;;;;;;29.14;56.62;97906.66;5044402;28;20609;-78
2023/08/13 06:57:42;;;;;;;8.38;5.15;;;;;;;29.76;56.92;97909.31;5018725;28;20500;-77
2023/08/13 07:00:08;;;;;;;6.00;3.65;;;;;;;30.99;53.04;97906.97;5008551;28;20037;-77
2023/08/13 07:02:33;;;;;;;30.55;24.02;;;;;;;30.86;52.11;97916.09;5024797;28;20539;-78
2023/08/13 07:04:59;;;;;;;6.50;4.55;;;;;;;29.96;53.82;97899.25;5024520;28;20086;-77
2023/08/13 07:07:24;;;;;;;5.78;4.00;;;;;;;30.44;52.71;97911.88;5039383;28;20028;-79
2023/08/13 07:09:50;;;;;;;5.97;3.72;;;;;;;30.90;50.57;97900.81;5027948;28;20040;-78
2023/08/13 07:12:16;;;;;;;6.47;3.50;;;;;;;30.16;52.40;97907.53;5024664;28;20044;-78
2023/08/13 07:14:42;;;;;;;6.93;3.60;;;;;;;29.72;51.86;97900.59;5032674;28;20037;-79
2023/08/13 07:17:07;;;;;;;5.28;3.63;;;;;;;30.42;51.43;97897.44;5025869;28;20041;-77
2023/08/13 07:19:33;;;;;;;15.60;4.60;;;;;;;30.63;49.87;97894.47;5024712;28;20063;-78
2023/08/13 07:21:58;;;;;;;13.32;3.65;;;;;;;30.94;47.03;97881.88;5024179;28;20094;-78
2023/08/13 07:24:24;;;;;;;17.02;4.32;;;;;;;32.14;46.13;97882.09;5024512;28;20029;-78
2023/08/13 07:26:49;;;;;;;11.98;8.98;;;;;;;31.33;48.19;97890.09;5008641;28;20412;-78
2023/08/13 07:29:15;;;;;;;6.13;3.92;;;;;;;30.17;48.29;97888.03;5031595;28;20048;-76
2023/08/13 07:31:41;;;;;;;10.82;3.22;;;;;;;29.82;50.17;97894.72;5060562;28;20047;-78
2023/08/13 07:34:06;;;;;;;3.53;3.10;;;;;;;30.63;49.00;97890.84;5035476;28;20037;-77
2023/08/13 07:36:33;;;;;;;7.70;4.15;;;;;;;30.52;52.43;97897.84;5024345;28;20493;-78
2023/08/13 07:38:59;;;;;;;54.42;6.72;;;;;;;31.12;51.81;97888.47;5024051;28;20037;-77
2023/08/13 07:41:24;;;;;;;20.67;4.05;;;;;;;32.69;48.53;97881.28;5024086;28;20032;-78
2023/08/13 07:43:50;;;;;;;19.05;3.80;;;;;;;34.46;43.89;97878.25;5037942;28;20029;-77
2023/08/13 07:46:15;;;;;;;13.20;3.30;;;;;;;35.31;41.97;97878.72;5043714;28;20028;-77
2023/08/13 07:48:41;;;;;;;8.80;4.38;;;;;;;31.83;47.13;97882.03;5044973;28;20029;-78
2023/08/13 07:51:08;;;;;;;4.25;3.75;;;;;;;31.96;48.74;97885.56;5043226;28;20536;-78
2023/08/13 07:53:34;;;;;;;13.05;3.55;;;;;;;32.33;47.29;97875.59;5023995;28;20098;-79
2023/08/13 07:55:59;;;;;;;15.23;4.03;;;;;;;32.52;45.98;97871.78;5023596;28;20037;-77
2023/08/13 07:58:25;;;;;;;8.23;3.60;;;;;;;33.41;43.74;97867.75;5007444;28;20029;-78
2023/08/13 08:00:51;;;;;;;4.72;3.53;;;;;;;33.94;42.69;97865.13;5024203;28;20029;-78
2023/08/13 08:03:16;;;;;;;5.25;3.17;;;;;;;34.05;42.31;97865.22;5023591;28;20148;-78
2023/08/13 08:05:42;;;;;;;4.50;3.17;;;;;;;34.13;41.16;97861.25;5023805;28;20030;-78
2023/08/13 08:08:08;;;;;;;5.38;3.10;;;;;;;35.31;40.26;97856.47;5041067;28;20116;-78
2023/08/13 08:10:34;;;;;;;4.13;3.30;;;;;;;34.22;41.39;97857.06;5034827;28;20506;-78
2023/08/13 08:12:59;;;;;;;3.63;3.13;;;;;;;35.04;40.88;97852.47;5037503;28;20059;-78
2023/08/13 08:15:25;;;;;;;3.97;3.42;;;;;;;33.97;41.95;97851.63;5042480;28;20440;-77
2023/08/13 08:17:51;;;;;;;3.60;3.30;;;;;;;34.07;42.95;97851.06;5045069;28;20480;-78
2023/08/13 08:20:16;;;;;;;7.45;3.75;;;;;;;35.09;41.74;97844.28;5026597;28;20037;-79
2023/08/13 08:22:42;;;;;;;4.38;3.63;;;;;;;32.56;44.81;97844.50;5044144;28;20444;-78
2023/08/13 08:25:09;;;;;;;4.18;3.30;;;;;;;32.20;45.81;97848.81;5043423;28;20051;-77
2023/08/13 08:27:35;;;;;;;7.25;4.75;;;;;;;33.97;43.53;97842.44;5043423;28;20471;-78
2023/08/13 08:30:01;;;;;;;4.60;3.40;;;;;;;33.54;43.19;97834.25;5043337;28;20180;-78
2023/08/13 08:32:26;;;;;;;5.05;3.85;;;;;;;33.88;42.67;97830.84;5043124;28;20045;-78
2023/08/13 08:34:52;;;;;;;7.13;3.10;;;;;;;32.53;44.78;97823.63;5028103;28;20046;-78
2023/08/13 08:37:17;;;;;;;5.38;4.40;;;;;;;33.84;43.38;97828.78;5023125;28;20045;-78
2023/08/13 08:39:43;;;;;;;4.57;3.05;;;;;;;33.59;44.36;97826.09;5023053;28;20036;-78
2023/08/13 08:42:11;;;;;;;7.72;3.80;;;;;;;35.16;41.95;97820.78;5037442;28;20031;-78
2023/08/13 08:44:39;;;;;;;5.65;3.53;;;;;;;35.58;40.65;97820.59;5043373;28;20487;-78
2023/08/13 08:47:05;;;;;;;4.82;3.33;;;;;;;36.31;38.83;97817.84;5043893;28;20120;-78
2023/08/13 08:49:31;;;;;;;12.27;4.75;;;;;;;36.78;38.25;97816.44;5043034;28;20819;-78
2023/08/13 08:51:56;;;;;;;10.50;4.15;;;;;;;37.60;37.35;97818.44;5044482;28;20511;-78
2023/08/13 08:54:22;;;;;;;8.63;3.70;;;;;;;37.45;36.80;97805.16;5035783;28;20056;-78
2023/08/13 08:56:48;;;;;;;6.60;3.03;;;;;;;37.46;36.65;97809.63;5026198;28;20102;-78
2023/08/13 08:59:14;;;;;;;4.43;3.28;;;;;;;38.52;35.26;97805.19;5025992;28;20029;-78
2023/08/13 09:01:40;;;;;;;12.65;3.55;;;;;;;38.83;34.79;97807.16;5024454;28;20485;-79
2023/08/13 09:04:05;;;;;;;4.22;3.03;;;;;;;37.16;35.75;97800.84;5019103;28;20025;-78
2023/08/13 09:06:53;;;;;;;8.43;3.28;;;;;;;37.32;35.45;97794.31;5043844;28;20445;-78
2023/08/13 09:09:19;;;;;;;8.40;3.13;;;;;;;38.47;33.95;97791.19;5056319;27;20477;-77
2023/08/13 09:11:45;;;;;;;3.25;2.88;;;;;;;38.30;32.56;97787.66;5025749;28;20029;-78
2023/08/13 09:14:11;;;;;;;8.45;3.55;;;;;;;39.31;30.68;97775.28;5026920;28;20229;-78
2023/08/13 09:16:36;;;;;;;3.28;2.92;;;;;;;38.99;31.20;97771.72;5008681;28;20145;-78
2023/08/13 09:19:02;;;;;;;2.80;2.60;;;;;;;39.14;31.84;97780.19;5027949;28;20029;-79
2023/08/13 09:21:29;;;;;;;5.63;3.08;;;;;;;40.04;31.37;97774.13;5030147;28;20030;-78
2023/08/13 09:23:58;;;;;;;5.35;3.58;;;;;;;40.52;30.48;97766.34;5035735;28;20033;-78
2023/08/13 09:26:27;;;;;;;6.45;3.03;;;;;;;39.30;31.67;97773.59;5040750;28;20026;-77
2023/08/13 09:28:53;;;;;;;11.52;3.55;;;;;;;38.98;32.19;97775.63;5032084;28;20132;-78
2023/08/13 09:31:18;;;;;;;6.57;2.90;;;;;;;37.97;32.41;97766.38;5034602;28;20057;-77
2023/08/13 09:33:47;;;;;;;5.60;2.83;;;;;;;38.80;30.81;97768.53;5028601;28;20032;-77
2023/08/13 09:36:12;;;;;;;3.42;3.10;;;;;;;37.93;30.95;97748.47;5028908;28;20477;-78
2023/08/13 09:38:41;;;;;;;5.68;3.15;;;;;;;38.45;30.94;97755.13;5030028;28;20029;-78
2023/08/13 09:41:14;;;;;;;4.70;3.40;;;;;;;39.21;30.20;97751.97;5033576;28;20024;-78
2023/08/13 09:43:43;;;;;;;10.55;4.28;;;;;;;38.57;30.65;97751.28;5037323;28;20102;-77
2023/08/13 09:46:23;;;;;;;17.20;3.28;;;;;;;37.53;32.00;97754.44;5028429;28;20028;-78
2023/08/13 09:48:52;;;;;;;6.45;3.42;;;;;;;37.11;32.63;97753.28;5023112;28;20094;-77
2023/08/13 09:51:21;;;;;;;4.90;3.30;;;;;;;36.75;33.53;97752.78;5034989;28;20094;-77
2023/08/13 09:53:53;;;;;;;9.68;4.10;;;;;;;37.15;33.63;97754.47;5027680;28;20033;-77
2023/08/13 09:56:20;;;;;;;8.23;4.15;;;;;;;37.74;33.11;97761.09;5028154;28;20029;-78
2023/08/13 09:58:46;;;;;;;4.75;4.28;;;;;;;37.43;32.50;97748.69;5039303;28;20036;-78
2023/08/13 10:01:13;;;;;;;19.15;4.10;;;;;;;35.72;34.77;97758.78;5023039;28;20026;-77
2023/08/13 10:03:39;;;;;;;4.47;3.47;;;;;;;34.61;35.74;97759.13;5032128;28;20472;-77
2023/08/13 10:06:13;;;;;;;9.45;3.15;;;;;;;35.57;34.91;97752.03;5017293;28;20060;-79
2023/08/13 10:08:39;;;;;;;15.98;3.60;;;;;;;36.87;33.85;97744.31;5031109;28;20480;-76
2023/08/13 10:11:05;;;;;;;8.60;3.30;;;;;;;36.41;33.59;97751.09;5037219;28;20040;-78
2023/08/13 10:13:45;;;;;;;5.47;2.80;;;;;;;36.52;33.64;97754.91;5028241;28;20104;-79
2023/08/13 10:16:11;;;;;;;17.40;3.60;;;;;;;37.34;32.99;97745.53;5027995;28;20037;-78
2023/08/13 10:18:45;;;;;;;7.00;3.40;;;;;;;38.84;31.07;97746.44;5034812;28;20035;-78
2023/08/13 10:21:15;;;;;;;6.05;3.33;;;;;;;39.43;30.14;97738.63;5047608;28;20028;-78
2023/08/13 10:23:40;;;;;;;23.88;4.63;;;;;;;36.98;32.63;97751.69;5040509;28;20442;-78
2023/08/13 10:26:09;;;;;;;11.23;3.60;;;;;;;33.85;35.54;97748.00;5027362;28;20034;-73
2023/08/13 10:28:35;;;;;;;5.55;3.42;;;;;;;33.66;36.30;97752.78;5027663;28;20057;-74
2023/08/13 10:31:29;;;;;;;8.45;5.88;;;;;;;33.34;37.24;97756.00;5027871;28;20084;-73
2023/08/13 10:34:07;;;;;;;9.18;3.42;;;;;;;34.07;36.73;97745.53;5040258;28;20032;-74
2023/08/13 10:36:54;;;;;;;9.95;4.05;;;;;;;36.35;34.78;97743.75;5047310;28;20024;-74
2023/08/13 10:39:38;;;;;;;10.23;3.83;;;;;;;36.81;34.33;97737.81;5047510;28;20029;-73
2023/08/13 10:42:05;;;;;;;7.80;3.50;;;;;;;35.68;35.26;97732.56;5045512;28;20407;-72
2023/08/13 10:44:32;;;;;;;5.00;3.20;;;;;;;34.74;35.99;97736.66;5027407;28;20396;-73
2023/08/13 10:46:57;;;;;;;5.53;3.30;;;;;;;34.34;36.69;97735.66;5027204;28;20456;-74
2023/08/13 10:49:25;;;;;;;6.55;3.35;;;;;;;33.92;37.95;97742.34;5027297;28;20072;-73
2023/08/13 10:51:52;;;;;;;5.35;3.50;;;;;;;34.53;37.19;97734.47;5027122;28;20061;-73
2023/08/13 10:54:17;;;;;;;6.97;3.42;;;;;;;34.92;36.63;97721.75;5026956;28;20044;-73
2023/08/13 10:56:45;;;;;;;17.73;12.23;;;;;;;34.35;37.48;97731.81;5028151;28;20100;-73
2023/08/13 10:59:11;;;;;;;12.85;3.58;;;;;;;33.91;37.98;97729.53;5028022;28;20034;-74
2023/08/13 11:02:12;;;;;;;7.03;3.53;;;;;;;34.66;37.30;97723.13;5027480;28;20036;-74
2023/08/13 11:04:41;;;;;;;8.20;4.87;;;;;;;35.19;36.97;97717.34;5010585;28;20022;-74
2023/08/13 11:07:07;;;;;;;9.90;3.17;;;;;;;34.43;37.86;97725.88;5027693;28;20029;-74
2023/08/13 11:09:33;;;;;;;23.85;4.20;;;;;;;33.92;39.05;97731.25;5048230;28;20147;-73
2023/08/13 11:11:58;;;;;;;12.63;5.00;;;;;;;32.90;38.85;97723.91;5046566;28;20116;-74
2023/08/13 11:14:25;;;;;;;9.90;5.30;;;;;;;32.60;40.35;97727.44;5046368;28;20119;-74
2023/08/13 11:16:52;;;;;;;7.82;4.03;;;;;;;34.61;38.54;97724.97;5030020;28;20116;-74
2023/08/13 11:19:17;;;;;;;3.67;3.22;;;;;;;35.78;37.03;97710.44;5030032;28;20476;-74
2023/08/13 11:21:43;;;;;;;8.98;4.55;;;;;;;35.69;37.08;97717.50;5029822;28;20061;-73